createdAt,value
2018-09-19T00:01:22.707Z,101775.98
2018-09-19T00:03:52.699Z,101771.23
2018-09-19T00:06:21.931Z,101783.66
2018-09-19T00:08:52.267Z,101769.69
2018-09-19T00:11:21.568Z,101782.11
2018-09-19T00:13:51.594Z,101778.67
2018-09-19T00:16:26.983Z,101781.20
2018-09-19T00:18:56.435Z,101784.63
2018-09-19T00:21:26.493Z,101784.73
2018-09-19T00:23:55.735Z,101777.94
2018-09-19T00:26:25.060Z,101780.43
2018-09-19T00:28:55.322Z,101778.14
2018-09-19T00:31:28.117Z,101773.80
2018-09-19T00:33:57.837Z,101759.92
2018-09-19T00:36:27.777Z,101770.19
2018-09-19T00:39:03.732Z,101766.86
2018-09-19T00:41:33.493Z,101771.88
2018-09-19T00:44:03.605Z,101769.25
2018-09-19T00:46:33.521Z,101762.17
2018-09-19T00:49:03.762Z,101757.87
2018-09-19T00:51:33.418Z,101768.09
2018-09-19T00:54:02.751Z,101766.31
2018-09-19T00:56:31.993Z,101761.48
2018-09-19T00:59:01.329Z,101765.75
2018-09-19T01:01:30.962Z,101761.48
2018-09-19T01:04:00.628Z,101756.09
2018-09-19T01:06:31.126Z,101764.48
2018-09-19T01:09:00.419Z,101766.31
2018-09-19T01:11:30.693Z,101764.92
2018-09-19T01:14:00.133Z,101769.78
2018-09-19T01:16:30.283Z,101764.85
2018-09-19T01:18:59.759Z,101761.39
2018-09-19T01:21:29.910Z,101768.14
2018-09-19T01:23:59.135Z,101758.54
2018-09-19T01:26:29.832Z,101758.91
2018-09-19T01:28:59.197Z,101759.75
2018-09-19T01:31:29.160Z,101755.11
2018-09-19T01:33:58.469Z,101757.89
2018-09-19T01:36:27.880Z,101757.64
2018-09-19T01:38:57.090Z,101751.41
2018-09-19T01:41:26.560Z,101754.88
2018-09-19T01:43:57.613Z,101753.89
2018-09-19T01:46:26.908Z,101755.58
2018-09-19T01:48:56.801Z,101753.50
2018-09-19T01:51:26.192Z,101749.06
2018-09-19T01:53:56.561Z,101754.91
2018-09-19T01:56:26.839Z,101749.72
2018-09-19T01:58:56.214Z,101755.45
2018-09-19T02:01:26.270Z,101755.83
2018-09-19T02:03:56.964Z,101758.70
2018-09-19T02:06:26.254Z,101755.70
2018-09-19T02:08:58.328Z,101755.39
2018-09-19T02:11:28.726Z,101764.48
2018-09-19T02:13:58.251Z,101766.91
2018-09-19T02:16:27.926Z,101763.97
2018-09-19T02:18:57.836Z,101765.52
2018-09-19T02:21:27.076Z,101759.77
2018-09-19T02:23:56.298Z,101765.06
2018-09-19T02:26:27.401Z,101760.58
2018-09-19T02:28:56.750Z,101762.56
2018-09-19T02:31:26.025Z,101761.89
2018-09-19T02:33:55.617Z,101768.20
2018-09-19T02:36:26.122Z,101766.57
2018-09-19T02:38:58.716Z,101760.80
2018-09-19T02:41:33.335Z,101767.50
2018-09-19T02:44:02.763Z,101765.25
2018-09-19T02:46:32.680Z,101763.72
2018-09-19T02:49:02.057Z,101759.64
2018-09-19T02:51:31.447Z,101760.38
2018-09-19T02:54:01.394Z,101760.87
2018-09-19T02:56:32.603Z,101759.22
2018-09-19T02:59:01.861Z,101758.75
2018-09-19T03:01:32.161Z,101755.83
2018-09-19T03:04:04.912Z,101762.86
2018-09-19T03:06:34.309Z,101766.98
2018-09-19T03:09:03.830Z,101760.13
2018-09-19T03:11:33.109Z,101768.07
2018-09-19T03:14:03.639Z,101759.22
2018-09-19T03:16:36.012Z,101768.99
2018-09-19T03:19:06.479Z,101763.16
2018-09-19T03:21:36.585Z,101765.06
2018-09-19T03:24:05.824Z,101771.30
2018-09-19T03:26:35.418Z,101772.36
2018-09-19T03:29:05.874Z,101767.47
2018-09-19T03:31:35.367Z,101773.08
2018-09-19T03:34:04.799Z,101773.33
2018-09-19T03:36:34.148Z,101766.69
2018-09-19T03:39:04.962Z,101763.13
2018-09-19T03:41:35.142Z,101764.66
2018-09-19T03:44:04.714Z,101768.59
2018-09-19T03:46:34.814Z,101770.32
2018-09-19T03:49:04.310Z,101768.20
2018-09-19T03:51:33.543Z,101769.01
2018-09-19T03:54:02.978Z,101774.30
2018-09-19T03:56:32.347Z,101767.98
2018-09-19T03:59:02.341Z,101770.21
2018-09-19T04:01:33.864Z,101772.77
2018-09-19T04:04:03.286Z,101779.26
2018-09-19T04:06:35.800Z,101774.30
2018-09-19T04:09:07.312Z,101775.61
2018-09-19T04:11:36.544Z,101771.73
2018-09-19T04:14:06.848Z,101772.58
2018-09-19T04:16:36.631Z,101776.82
2018-09-19T04:19:09.058Z,101780.00
2018-09-19T04:21:44.294Z,101774.20
2018-09-19T04:24:14.558Z,101792.11
2018-09-19T04:26:43.751Z,101793.20
2018-09-19T04:29:13.335Z,101794.33
2018-09-19T04:31:43.016Z,101795.48
2018-09-19T04:34:13.483Z,101794.83
2018-09-19T04:36:49.960Z,101791.89
2018-09-19T04:39:19.773Z,101795.67
2018-09-19T04:41:49.695Z,101800.30
2018-09-19T04:44:19.045Z,101807.63
2018-09-19T04:46:48.228Z,101811.08
2018-09-19T04:49:17.923Z,101805.61
2018-09-19T04:51:48.265Z,101806.16
2018-09-19T04:54:19.123Z,101819.42
2018-09-19T04:56:50.498Z,101821.09
2018-09-19T04:59:21.927Z,101820.25
2018-09-19T05:01:51.393Z,101826.03
2018-09-19T05:04:22.045Z,101817.40
2018-09-19T05:06:51.731Z,101822.84
2018-09-19T05:09:22.397Z,101818.11
2018-09-19T05:11:53.159Z,101832.55
2018-09-19T05:14:22.548Z,101830.58
2018-09-19T05:16:51.990Z,101831.12
2018-09-19T05:19:21.925Z,101829.39
2018-09-19T05:21:51.961Z,101833.87
2018-09-19T05:24:22.473Z,101827.56
2018-09-19T05:26:51.911Z,101832.49
2018-09-19T05:29:29.329Z,101837.39
2018-09-19T05:31:59.311Z,101832.62
2018-09-19T05:34:28.598Z,101837.15
2018-09-19T05:36:58.419Z,101843.36
2018-09-19T05:39:27.781Z,101834.19
2018-09-19T05:41:57.136Z,101843.59
2018-09-19T05:44:27.234Z,101843.92
2018-09-19T05:46:56.456Z,101850.84
2018-09-19T05:49:25.800Z,101846.14
2018-09-19T05:51:55.497Z,101852.33
2018-09-19T05:54:25.629Z,101863.07
2018-09-19T05:56:55.621Z,101856.66
2018-09-19T05:59:25.714Z,101857.03
2018-09-19T06:01:54.949Z,101866.42
2018-09-19T06:04:24.272Z,101876.89
2018-09-19T06:06:53.487Z,101875.31
2018-09-19T06:09:25.173Z,101865.75
2018-09-19T06:11:54.780Z,101866.64
2018-09-19T06:14:24.917Z,101848.09
2018-09-19T06:16:54.184Z,101874.08
2018-09-19T06:19:27.338Z,101870.13
2018-09-19T06:21:56.688Z,101870.91
2018-09-19T06:24:26.534Z,101870.58
2018-09-19T06:26:57.162Z,101873.80
2018-09-19T06:29:26.492Z,101870.52
2018-09-19T06:31:55.896Z,101864.62
2018-09-19T06:34:27.765Z,101873.06
2018-09-19T06:36:58.544Z,101866.78
2018-09-19T06:39:28.379Z,101862.34
2018-09-19T06:41:58.401Z,101870.50
2018-09-19T06:44:31.759Z,101870.94
2018-09-19T06:47:01.975Z,101876.42
2018-09-19T06:49:35.125Z,101878.34
2018-09-19T06:52:05.537Z,101883.16
2018-09-19T06:54:34.972Z,101874.79
2018-09-19T06:57:05.132Z,101878.39
2018-09-19T06:59:35.489Z,101872.98
2018-09-19T07:02:05.739Z,101882.56
2018-09-19T07:04:36.048Z,101874.14
2018-09-19T07:07:06.368Z,101880.15
2018-09-19T07:09:37.974Z,101867.20
2018-09-19T07:12:07.274Z,101887.94
2018-09-19T07:14:36.441Z,101886.34
2018-09-19T07:17:07.744Z,101887.50
2018-09-19T07:19:37.029Z,101897.89
2018-09-19T07:22:06.280Z,101837.92
2018-09-19T07:24:37.786Z,101891.34
2018-09-19T07:27:07.129Z,101893.43
2018-09-19T07:29:36.384Z,101896.37
2018-09-19T07:32:07.178Z,101876.59
2018-09-19T07:34:37.924Z,101888.06
2018-09-19T07:37:07.234Z,101884.47
2018-09-19T07:39:38.694Z,101889.97
2018-09-19T07:42:08.404Z,101892.68
2018-09-19T07:44:37.596Z,101880.11
2018-09-19T07:47:15.111Z,101824.97
2018-09-19T07:49:46.645Z,101895.03
2018-09-19T07:52:16.019Z,101891.67
2018-09-19T07:54:45.259Z,101893.83
2018-09-19T07:57:16.399Z,101879.33
2018-09-19T07:59:46.523Z,101883.48
2018-09-19T08:02:17.996Z,101892.34
2018-09-19T08:04:49.511Z,101894.72
2018-09-19T08:07:20.079Z,101898.78
2018-09-19T08:09:49.260Z,101889.70
2018-09-19T08:12:19.833Z,101888.70
2018-09-19T08:14:51.652Z,101897.84
2018-09-19T08:17:23.711Z,101898.66
2018-09-19T08:19:55.372Z,101898.71
2018-09-19T08:22:26.061Z,101886.55
2018-09-19T08:24:55.430Z,101895.64
2018-09-19T08:27:25.694Z,101895.75
2018-09-19T08:29:54.852Z,101890.95
2018-09-19T08:32:30.622Z,101889.20
2018-09-19T08:35:00.239Z,101886.70
2018-09-19T08:37:30.683Z,101886.17
2018-09-19T08:39:59.975Z,101890.72
2018-09-19T08:42:29.262Z,101890.00
2018-09-19T08:44:59.217Z,101880.08
2018-09-19T08:47:28.455Z,101891.44
2018-09-19T08:49:57.699Z,101882.22
2018-09-19T08:52:27.231Z,101879.92
2018-09-19T08:54:58.531Z,101869.69
2018-09-19T08:57:29.505Z,101884.89
2018-09-19T09:00:01.682Z,101879.44
2018-09-19T09:02:31.047Z,101868.98
2018-09-19T09:05:00.439Z,101876.84
2018-09-19T09:07:30.007Z,101875.72
2018-09-19T09:09:59.373Z,101880.61
2018-09-19T09:12:30.580Z,101881.34
2018-09-19T09:15:00.657Z,101875.36
2018-09-19T09:17:30.732Z,101874.52
2018-09-19T09:20:00.192Z,101878.68
2018-09-19T09:22:30.358Z,101875.90
2018-09-19T09:24:59.768Z,101873.20
2018-09-19T09:27:29.131Z,101869.70
2018-09-19T09:29:58.420Z,101869.77
2018-09-19T09:32:28.380Z,101870.86
2018-09-19T09:34:57.626Z,101868.84
2018-09-19T09:37:28.026Z,101871.90
2018-09-19T09:39:57.364Z,101866.06
2018-09-19T09:42:26.652Z,101858.25
2018-09-19T09:44:55.949Z,101853.55
2018-09-19T09:47:25.200Z,101859.60
2018-09-19T09:49:55.905Z,101858.84
2018-09-19T09:52:25.545Z,101856.06
2018-09-19T09:54:55.042Z,101849.05
2018-09-19T09:57:24.396Z,101850.70
2018-09-19T09:59:54.257Z,101855.32
2018-09-19T10:02:23.610Z,101850.23
2018-09-19T10:04:52.714Z,101855.52
2018-09-19T10:07:23.484Z,101836.77
2018-09-19T10:09:53.649Z,101839.86
2018-09-19T10:12:23.553Z,101851.78
2018-09-19T10:14:53.528Z,101841.67
2018-09-19T10:17:23.097Z,101835.98
2018-09-19T10:19:53.277Z,101815.57
2018-09-19T10:22:23.448Z,101834.48
2018-09-19T10:24:53.608Z,101834.25
2018-09-19T10:27:23.180Z,101829.35
2018-09-19T10:29:52.631Z,101819.63
2018-09-19T10:32:22.001Z,101837.03
2018-09-19T10:34:52.082Z,101838.02
2018-09-19T10:37:21.472Z,101835.10
2018-09-19T10:39:53.000Z,101833.16
2018-09-19T10:42:24.442Z,101837.39
2018-09-19T10:44:54.591Z,101827.46
2018-09-19T10:47:24.958Z,101825.73
2018-09-19T10:49:54.838Z,101825.88
2018-09-19T10:52:24.427Z,101833.25
2018-09-19T10:54:56.368Z,101826.13
2018-09-19T10:57:25.669Z,101824.94
2018-09-19T10:59:55.708Z,101817.38
2018-09-19T11:02:25.984Z,101790.59
2018-09-19T11:04:57.583Z,101809.19
2018-09-19T11:07:26.941Z,101804.94
2018-09-19T11:09:56.350Z,101805.11
2018-09-19T11:12:25.904Z,101808.91
2018-09-19T11:14:56.399Z,101799.55
2018-09-19T11:17:25.856Z,101790.30
2018-09-19T11:19:55.222Z,101795.34
2018-09-19T11:22:26.497Z,101788.33
2018-09-19T11:24:56.035Z,101791.33
2018-09-19T11:27:26.423Z,101783.03
2018-09-19T11:29:56.873Z,101776.98
2018-09-19T11:32:27.287Z,101789.30
2018-09-19T11:34:56.672Z,101790.27
2018-09-19T11:37:27.680Z,101708.13
2018-09-19T11:39:57.835Z,101788.60
2018-09-19T11:42:27.125Z,101794.53
2018-09-19T11:44:57.610Z,101781.42
2018-09-19T11:47:27.443Z,101786.78
2018-09-19T11:49:56.805Z,101782.71
2018-09-19T11:52:26.189Z,101777.06
2018-09-19T11:54:59.296Z,101779.47
2018-09-19T11:57:29.896Z,101785.25
2018-09-19T11:59:59.698Z,101779.48
2018-09-19T12:02:29.427Z,101772.68
2018-09-19T12:05:01.345Z,101765.67
2018-09-19T12:07:30.737Z,101768.66
2018-09-19T12:10:00.114Z,101773.02
2018-09-19T12:12:30.970Z,101764.67
2018-09-19T12:15:01.061Z,101764.53
2018-09-19T12:17:33.699Z,101767.30
2018-09-19T12:20:03.130Z,101766.80
2018-09-19T12:22:33.462Z,101757.38
2018-09-19T12:25:06.167Z,101762.47
2018-09-19T12:27:35.351Z,101765.45
2018-09-19T12:30:06.443Z,101757.49
2018-09-19T12:32:44.765Z,101760.07
2018-09-19T12:35:14.116Z,101756.08
2018-09-19T12:37:50.012Z,101757.42
2018-09-19T12:40:20.962Z,101751.87
2018-09-19T12:42:51.462Z,101747.62
2018-09-19T12:45:20.804Z,101753.02
2018-09-19T12:47:50.828Z,101745.24
2018-09-19T12:50:21.530Z,101745.70
2018-09-19T12:52:50.862Z,101755.63
2018-09-19T12:55:21.744Z,101754.81
2018-09-19T12:57:51.109Z,101748.53
2018-09-19T13:00:20.269Z,101749.29
2018-09-19T13:02:49.687Z,101741.09
2018-09-19T13:05:19.141Z,101739.33
2018-09-19T13:07:49.348Z,101738.16
2018-09-19T13:10:19.575Z,101739.89
2018-09-19T13:12:50.917Z,101742.53
2018-09-19T13:15:20.880Z,101744.48
2018-09-19T13:17:51.360Z,101736.56
2018-09-19T13:20:21.442Z,101744.34
2018-09-19T13:22:50.787Z,101735.89
2018-09-19T13:25:21.741Z,101734.44
2018-09-19T13:27:52.860Z,101734.87
2018-09-19T13:30:25.632Z,101732.73
2018-09-19T13:32:54.891Z,101727.69
2018-09-19T13:35:25.313Z,101733.78
2018-09-19T13:37:56.305Z,101729.56
2018-09-19T13:40:26.601Z,101734.15
2018-09-19T13:42:56.509Z,101730.58
2018-09-19T13:45:26.792Z,101732.33
2018-09-19T13:47:56.202Z,101730.15
2018-09-19T13:51:31.777Z,101661.15
2018-09-19T13:54:01.203Z,101723.73
2018-09-19T13:56:31.754Z,101723.69
2018-09-19T13:59:02.011Z,101721.45
2018-09-19T14:01:33.001Z,101721.16
2018-09-19T14:04:02.871Z,101715.02
2018-09-19T14:06:33.229Z,101709.42
2018-09-19T14:09:03.627Z,101710.84
2018-09-19T14:11:33.089Z,101716.24
2018-09-19T14:14:02.332Z,101710.63
2018-09-19T14:16:31.741Z,101708.25
2018-09-19T14:19:01.228Z,101705.66
2018-09-19T14:21:31.315Z,101704.55
2018-09-19T14:24:02.977Z,101702.42
2018-09-19T14:26:33.079Z,101706.43
2018-09-19T14:29:02.271Z,101707.25
2018-09-19T14:31:31.695Z,101696.02
2018-09-19T14:34:01.623Z,101700.31
2018-09-19T14:36:31.725Z,101697.43
2018-09-19T14:39:10.013Z,101696.64
2018-09-19T14:41:40.203Z,101703.41
2018-09-19T14:44:10.534Z,101700.01
2018-09-19T14:46:39.791Z,101702.30
2018-09-19T14:49:10.888Z,101700.29
2018-09-19T14:51:40.302Z,101657.78
2018-09-19T14:54:10.187Z,101699.85
2018-09-19T14:56:40.103Z,101700.25
2018-09-19T14:59:11.063Z,101695.48
2018-09-19T15:01:46.588Z,101699.23
2018-09-19T15:04:17.526Z,101692.88
2018-09-19T15:06:48.847Z,101690.51
2018-09-19T15:09:18.273Z,101690.84
2018-09-19T15:11:49.704Z,101695.89
2018-09-19T15:14:19.010Z,101694.69
2018-09-19T15:16:48.293Z,101693.21
2018-09-19T15:19:17.894Z,101698.19
2018-09-19T15:21:48.349Z,101701.17
2018-09-19T15:24:19.649Z,101702.20
2018-09-19T15:26:49.614Z,101702.52
2018-09-19T15:29:20.099Z,101697.91
2018-09-19T15:31:52.477Z,101699.91
2018-09-19T15:34:22.720Z,101707.05
2018-09-19T15:36:51.937Z,101679.31
2018-09-19T15:39:21.344Z,101706.58
2018-09-19T15:41:52.145Z,101707.73
2018-09-19T15:44:22.991Z,101709.24
2018-09-19T15:46:52.560Z,101705.20
2018-09-19T15:49:21.829Z,101705.96
2018-09-19T15:51:55.055Z,101703.39
2018-09-19T15:54:25.484Z,101706.68
2018-09-19T15:56:55.600Z,101710.49
2018-09-19T15:59:27.289Z,101706.55
2018-09-19T16:01:58.055Z,101710.50
2018-09-19T16:04:27.751Z,101708.55
2018-09-19T16:06:56.983Z,101710.15
2018-09-19T16:09:27.149Z,101711.21
2018-09-19T16:11:57.845Z,101710.33
2018-09-19T16:14:27.253Z,101703.84
2018-09-19T16:16:57.803Z,101702.42
2018-09-19T16:19:27.017Z,101706.56
2018-09-19T16:24:33.338Z,101709.86
2018-09-19T16:27:02.781Z,101670.50
2018-09-19T16:29:34.847Z,101699.20
2018-09-19T16:32:05.030Z,101705.81
2018-09-19T16:34:35.612Z,101701.45
2018-09-19T16:37:06.423Z,101702.89
2018-09-19T16:39:37.353Z,101695.60
2018-09-19T16:42:08.083Z,101705.45
2018-09-19T16:44:37.514Z,101712.21
2018-09-19T16:47:06.809Z,101710.11
2018-09-19T16:49:37.091Z,101710.59
2018-09-19T16:52:07.286Z,101715.64
2018-09-19T16:54:36.598Z,101719.31
2018-09-19T16:57:06.145Z,101722.23
2018-09-19T16:59:37.650Z,101726.05
2018-09-19T17:02:08.868Z,101726.11
2018-09-19T17:04:39.321Z,101724.28
2018-09-19T17:07:09.500Z,101736.09
2018-09-19T17:09:38.790Z,101734.92
2018-09-19T17:12:10.005Z,101736.64
2018-09-19T17:14:39.397Z,101728.99
2018-09-19T17:17:09.516Z,101733.07
2018-09-19T17:19:38.381Z,101735.71
2018-09-19T17:22:07.384Z,101736.19
2018-09-19T17:24:37.471Z,101738.34
2018-09-19T17:27:06.375Z,101737.14
2018-09-19T17:29:35.240Z,101746.76
2018-09-19T17:32:04.211Z,101740.60
2018-09-19T17:34:33.253Z,101743.52
2018-09-19T17:37:02.096Z,101751.20
2018-09-19T17:39:30.967Z,101744.61
2018-09-19T17:41:59.804Z,101743.47
2018-09-19T17:44:28.688Z,101745.05
2018-09-19T17:46:57.684Z,101743.98
2018-09-19T17:49:26.530Z,101747.00
2018-09-19T17:51:55.378Z,101750.84
2018-09-19T17:54:25.744Z,101751.00
2018-09-19T17:56:54.648Z,101751.59
2018-09-19T17:59:23.470Z,101746.09
2018-09-19T18:01:52.389Z,101750.52
2018-09-19T18:04:21.250Z,101759.41
2018-09-19T18:06:50.202Z,101745.55
2018-09-19T18:09:19.156Z,101756.91
2018-09-19T18:11:47.991Z,101745.66
2018-09-19T18:14:16.813Z,101746.75
2018-09-19T18:16:45.675Z,101742.94
2018-09-19T18:19:14.490Z,101744.60
2018-09-19T18:21:43.357Z,101749.39
2018-09-19T18:24:13.440Z,101741.61
2018-09-19T18:26:42.260Z,101733.97
2018-09-19T18:29:11.093Z,101735.42
2018-09-19T18:31:41.171Z,101737.56
2018-09-19T18:34:10.064Z,101739.83
2018-09-19T18:36:38.935Z,101739.25
2018-09-19T18:39:07.883Z,101741.63
2018-09-19T18:41:37.362Z,101746.27
2018-09-19T18:44:06.257Z,101730.38
2018-09-19T18:46:35.187Z,101739.25
2018-09-19T18:49:05.407Z,101736.72
2018-09-19T18:51:35.543Z,101734.09
2018-09-19T18:54:04.348Z,101744.97
2018-09-19T18:56:33.159Z,101741.02
2018-09-19T18:59:01.999Z,101747.84
2018-09-19T19:01:30.829Z,101752.03
2018-09-19T19:03:59.684Z,101745.92
2018-09-19T19:06:29.841Z,101754.16
2018-09-19T19:08:58.654Z,101755.73
2018-09-19T19:11:27.526Z,101749.87
2018-09-19T19:13:57.619Z,101747.25
2018-09-19T19:16:26.434Z,101744.75
2018-09-19T19:18:55.235Z,101746.63
2018-09-19T19:21:25.327Z,101750.70
2018-09-19T19:23:54.131Z,101748.06
2018-09-19T19:26:22.998Z,101746.05
2018-09-19T19:28:51.874Z,101747.18
2018-09-19T19:31:20.808Z,101751.84
2018-09-19T19:33:49.657Z,101751.09
2018-09-19T19:36:18.555Z,101748.98
2018-09-19T19:38:47.373Z,101753.73
2018-09-19T19:41:16.178Z,101744.27
2018-09-19T19:43:45.086Z,101743.09
2018-09-19T19:46:13.919Z,101744.52
2018-09-19T19:48:42.790Z,101736.50
2018-09-19T19:51:12.922Z,101731.25
2018-09-19T19:53:42.264Z,101737.92
2018-09-19T19:56:12.521Z,101738.27
2018-09-19T19:58:41.380Z,101734.77
2018-09-19T20:01:10.187Z,101733.59
2018-09-19T20:03:40.390Z,101733.56
2018-09-19T20:06:09.187Z,101729.86
2018-09-19T20:08:39.248Z,101738.98
2018-09-19T20:11:08.150Z,101730.87
2018-09-19T20:13:36.972Z,101733.59
2018-09-19T20:16:07.134Z,101729.52
2018-09-19T20:18:35.975Z,101724.50
2018-09-19T20:21:04.800Z,101733.36
2018-09-19T20:23:33.610Z,101735.47
2018-09-19T20:26:02.471Z,101735.30
2018-09-19T20:28:31.278Z,101727.80
2018-09-19T20:31:00.253Z,101735.63
2018-09-19T20:33:29.065Z,101739.66
2018-09-19T20:35:57.871Z,101734.73
2018-09-19T20:38:26.719Z,101721.95
2018-09-19T20:40:56.884Z,101732.95
2018-09-19T20:43:25.737Z,101732.20
2018-09-19T20:45:54.586Z,101724.70
2018-09-19T20:48:24.752Z,101725.88
2018-09-19T20:50:53.626Z,101725.88
2018-09-19T20:53:23.890Z,101733.00
2018-09-19T20:55:52.822Z,101724.29
2018-09-19T20:58:21.659Z,101727.17
2018-09-19T21:00:50.485Z,101722.81
2018-09-19T21:03:20.594Z,101725.07
2018-09-19T21:05:49.511Z,101730.54
2018-09-19T21:08:18.354Z,101726.70
2018-09-19T21:10:47.243Z,101722.63
2018-09-19T21:13:16.155Z,101719.86
2018-09-19T21:15:45.079Z,101723.77
2018-09-19T21:18:13.985Z,101720.58
2018-09-19T21:20:42.870Z,101720.58
2018-09-19T21:23:11.796Z,101730.33
2018-09-19T21:25:40.767Z,101729.44
2018-09-19T21:28:09.579Z,101723.34
2018-09-19T21:30:38.408Z,101722.82
2018-09-19T21:33:07.312Z,101717.02
2018-09-19T21:35:36.175Z,101717.02
2018-09-19T21:38:04.983Z,101711.55
2018-09-19T21:40:33.951Z,101714.15
2018-09-19T21:43:02.807Z,101710.98
2018-09-19T21:45:31.723Z,101705.22
2018-09-19T21:48:00.553Z,101704.72
2018-09-19T21:50:29.370Z,101707.52
2018-09-19T21:52:58.163Z,101709.59
2018-09-19T21:55:27.133Z,101708.06
2018-09-19T21:57:55.955Z,101708.25
2018-09-19T22:00:24.776Z,101707.98
2018-09-19T22:02:53.647Z,101707.39
2018-09-19T22:05:22.495Z,101700.04
2018-09-19T22:07:51.310Z,101699.00
2018-09-19T22:10:20.221Z,101698.72
2018-09-19T22:12:49.082Z,101692.50
2018-09-19T22:15:17.863Z,101689.86
2018-09-19T22:17:47.018Z,101693.47
2018-09-19T22:20:15.834Z,101692.35
2018-09-19T22:22:44.666Z,101687.72
2018-09-19T22:25:13.542Z,101684.24
2018-09-19T22:27:42.458Z,101688.70
2018-09-19T22:30:11.331Z,101684.30
2018-09-19T22:32:40.136Z,101687.30
2018-09-19T22:35:08.942Z,101688.09
2018-09-19T22:37:37.821Z,101686.64
2018-09-19T22:40:06.670Z,101692.25
2018-09-19T22:42:35.467Z,101698.86
2018-09-19T22:45:04.387Z,101694.80
2018-09-19T22:47:33.212Z,101689.70
2018-09-19T22:50:02.087Z,101699.57
2018-09-19T22:52:30.959Z,101697.94
2018-09-19T22:54:59.968Z,101692.88
2018-09-19T22:57:29.112Z,101697.61
2018-09-19T22:59:57.912Z,101702.88
2018-09-19T23:02:26.738Z,101699.50
2018-09-19T23:04:55.593Z,101701.89
2018-09-19T23:07:24.393Z,101707.75
2018-09-19T23:09:53.216Z,101705.13
2018-09-19T23:12:22.148Z,101702.64
2018-09-19T23:14:51.904Z,101704.33
2018-09-19T23:17:20.714Z,101700.16
2018-09-19T23:19:49.571Z,101704.80
2018-09-19T23:22:18.370Z,101702.73
2018-09-19T23:24:47.225Z,101706.34
2018-09-19T23:27:16.075Z,101703.63
2018-09-19T23:29:44.861Z,101700.39
2018-09-19T23:32:13.695Z,101701.80
2018-09-19T23:34:42.511Z,101696.51
2018-09-19T23:37:11.301Z,101691.73
2018-09-19T23:39:40.135Z,101698.66
2018-09-19T23:42:08.946Z,101696.28
2018-09-19T23:44:37.746Z,101695.81
2018-09-19T23:47:06.679Z,101689.26
2018-09-19T23:49:35.466Z,101692.11
2018-09-19T23:52:04.350Z,101683.72
2018-09-19T23:54:33.212Z,101683.30
2018-09-19T23:57:02.050Z,101688.23
2018-09-19T23:59:30.870Z,101685.89
